Accueil
METAR-TAF:

METAR-TAF

Aéroports :

Iqaluit, Nunavut, Canada

Aéroport d'Iqaluit

latitude: 63-45N, longitude: 068-33W, altitude: 34 m

Observation

Le bulletin a été fait il y a 51 minutes, à 16:00 UTC
Vent calme
Température 11°C
Humidité 54%
Pression 1007 hPa
Visibilité: 48.3 km
Quelques nuages à une hauteur de 1500 ft
Nuages fragmentés à une hauteur de 13000 ft

METAR: CYFB 221600Z 00000KT 30SM FEW015 BKN130 11/02 A2975 RMK SC1AC5 SC TR SLP077

Heure: 12:51 (16:51 UTC)

Prévision

Le bulletin a été fait il y a 5 heures et 13 minutes, à 11:38 UTC
Prévision valable du 22 à 12 UTC au 23 à 12 UTC
Vent 12 kt de nord/nord-ouest
Visibilité: 10 km
Quelques nuages à une hauteur de 3000 ft
Nuages fragmentés à une hauteur de 17000 ft
Evoluant progressivement
du 22 à 15 UTC au 22 à 17 UTC
Vent 12 kt de ouest

TAF: CYFB 221138Z 2212/2312 34012KT P6SM FEW030 BKN170 BECMG 2215/2217 28012KT RMK NXT FCST BY 221800Z

Observations et prévisions météorologiques de plus de 4000 aéroports (messages METAR et TAF).

Les stations disponibles sont représentées par des disques jaunes et rouges sur la carte.

Passer la souris dessus pour voir le nom de la station.

Cliquer dessus pour voir les observations et prévisions météorologiques.

Pour changer de carte: cliquez sur les boutons verts avec une croix noire pour zoomer, sur le bouton vert avec un tiret pour effectuer un zoom arrière, ou sur les flèches vertes pour les cartes adjacentes.


METAR-TAF: